Latest Coastal Weather Observations for Roebourne Airport

IDW60701

Issued at 4:12 am WST Friday 29 July 2016 (issued every 10 minutes, with the page automatically refreshed every 10 minutes)

About coastal observations | Map of coastal stations | Coastal observations for WA | Marine services | Other Formats
Station Details ID: 004090 Name: ROEBOURNE AERO Lat: -20.76 Lon: 117.16 Height: 10.7 m
Data from the previous 72 hours. | See also: Recent months at Roebourne Airport
Date/Time
WST
Temp
°C
Wind Pressure Rain since
9am
mm
Weather Cloud Vis
km
Sea
Height
m
Swell
Dir  Spd
kts
Gust
kts
hPa Trend Height
m
Period
s
Dir
29/04:00am 13.9 ESE 2 3 1017.3 - 0.0 - - - - - - -
29/03:30am 14.7 CALM 0 0 1017.5 - 0.0 - - - - - - -
29/03:00am 14.0 ESE 2 3 1017.5 - 0.0 - - - - - - -
29/02:30am 14.7 S 4 4 1017.6 - 0.0 - - - - - - -
29/02:00am 14.9 SSW 4 4 1017.6 - 0.0 - - - - - - -
29/01:30am 14.9 S 4 4 1017.8 - 0.0 - - - - - - -
29/01:00am 15.2 SW 4 4 1018.0 - 0.0 - - - - - - -
29/12:30am 15.4 SSW 5 6 1018.0 - 0.0 - - - - - - -
29/12:00am 15.9 CALM 0 2 1018.1 - 0.0 - - - - - - -
 
Date/Time
WST
Temp
°C
Wind Pressure Rain since
9am
mm
Weather Cloud Vis
km
Sea
Height
m
Swell
Dir  Spd
kts
Gust
kts
hPa Trend Height
m
Period
s
Dir
28/11:30pm 17.0 SSW 5 5 1018.1 - 0.0 - - - - - - -
28/11:00pm 17.2 SSW 5 6 1018.3 - 0.0 - - - - - - -
28/10:30pm 17.1 S 5 5 1018.4 - 0.0 - - - - - - -
28/10:00pm 17.2 S 5 5 1018.5 - 0.0 - - - - - - -
28/09:30pm 17.8 S 5 6 1018.6 - 0.0 - - - - - - -
28/09:00pm 17.4 SSE 6 6 1018.6 - 0.0 - - - - - - -
28/08:30pm 17.8 SSE 7 7 1018.5 - 0.0 - - - - - - -
28/08:00pm 18.5 SE 5 8 1018.3 - 0.0 - - - - - - -
28/07:30pm 19.7 SSE 3 5 1018.2 - 0.0 - - - - - - -
28/07:00pm 20.2 ENE 1 3 1018.1 - 0.0 - - - - - - -
28/06:30pm 21.7 N 6 8 1017.7 - 0.0 - - - - - - -
28/06:00pm 22.6 NNE 9 11 1017.4 - 0.0 - - - - - - -
28/05:30pm 23.9 NNE 10 14 1017.3 - 0.0 - - - - - - -
28/05:00pm 25.2 NNE 13 17 1017.2 - 0.0 - - - - - - -
28/04:30pm 25.8 NNE 15 19 1017.0 - 0.0 - - - - - - -
28/04:00pm 26.6 NE 17 21 1016.9 - 0.0 - - - - - - -
28/03:30pm 27.4 NE 17 22 1016.8 - 0.0 - - - - - - -
28/03:00pm 27.7 NE 22 28 1016.8 - 0.0 - - - - - - -
28/02:30pm 28.0 NE 23 28 1016.9 - 0.0 - - - - - - -
28/02:00pm 28.1 NE 23 28 1017.1 - 0.0 - - - - - - -
28/01:30pm 28.8 NE 21 29 1017.3 - 0.0 - - - - - - -
28/01:00pm 28.4 NE 23 29 1017.7 - 0.0 - - - - - - -
28/12:30pm 29.0 ENE 19 25 1018.3 - 0.0 - - - - - - -
28/12:00pm 28.4 ENE 18 23 1018.7 - 0.0 - - - - - - -
28/11:30am 28.4 ENE 21 27 1019.1 - 0.0 - - - - - - -
28/11:00am 27.6 ENE 22 27 1019.4 - 0.0 - - - - - - -
28/10:37am 27.2 ENE 22 32 1019.7 - 0.0 - - - - - - -
28/10:30am 27.1 E 23 31 1019.8 - 0.0 - - - - - - -
28/10:00am 26.7 E 22 32 1020.2 - 0.0 - - - - - - -
28/09:51am 26.5 E 21 32 1020.2 - 0.0 - - - - - - -
28/09:30am 26.3 E 18 24 1020.2 - 0.0 - - - - - - -
28/09:00am 24.5 E 19 26 1020.2 - 0.0 - - - - - - -
28/08:30am 23.4 ESE 16 20 1020.1 - 0.0 - - - - - - -
28/08:00am 21.7 ESE 13 19 1019.8 - 0.0 - - - - - - -
28/07:30am 20.0 ESE 12 15 1019.4 - 0.0 - - - - - - -
28/07:00am 18.9 ESE 11 14 1019.2 - 0.0 - - - - - - -
28/06:30am 18.0 ESE 11 13 1018.8 - 0.0 - - - - - - -
28/06:00am 18.1 ESE 10 13 1018.5 - 0.0 - - - - - - -
28/05:30am 17.8 ESE 9 11 1018.1 - 0.0 - - - - - - -
28/05:00am 18.3 ESE 9 11 1017.9 - 0.0 - - - - - - -
28/04:30am 19.0 ESE 9 11 1017.8 - 0.0 - - - - - - -
28/04:00am 18.8 ESE 8 9 1017.6 - 0.0 - - - - - - -
28/03:30am 19.4 ESE 8 11 1017.7 - 0.0 - - - - - - -
28/03:00am 19.0 ESE 9 10 1017.8 - 0.0 - - - - - - -
28/02:30am 18.8 ESE 8 10 1017.8 - 0.0 - - - - - - -
28/02:00am 17.4 ESE 7 8 1017.7 - 0.0 - - - - - - -
28/01:30am 15.5 ESE 3 5 1017.9 - 0.0 - - - - - - -
28/01:00am 16.2 SSE 3 5 1017.9 - 0.0 - - - - - - -
28/12:30am 16.1 S 5 6 1017.9 - 0.0 - - - - - - -
28/12:00am 15.9 SSW 8 8 1017.9 - 0.0 - - - - - - -
 
Date/Time
WST
Temp
°C
Wind Pressure Rain since
9am
mm
Weather Cloud Vis
km
Sea
Height
m
Swell
Dir  Spd
kts
Gust
kts
hPa Trend Height
m
Period
s
Dir
27/11:30pm 15.8 SSW 6 7 1017.8 - 0.0 - - - - - - -
27/11:00pm 15.8 SSW 6 7 1017.7 - 0.0 - - - - - - -
27/10:30pm 15.9 SSW 6 6 1017.9 - 0.0 - - - - - - -
27/10:00pm 17.5 SSW 4 5 1017.9 - 0.0 - - - - - - -
27/09:30pm 17.7 SSW 6 7 1017.9 - 0.0 - - - - - - -
27/09:00pm 17.6 SSW 6 7 1017.8 - 0.0 - - - - - - -
27/08:30pm 18.4 CALM 0 3 1017.6 - 0.0 - - - - - - -
27/08:00pm 19.2 CALM 0 0 1017.6 - 0.0 - - - - - - -
27/07:30pm 19.6 CALM 0 3 1017.4 - 0.0 - - - - - - -
27/07:00pm 20.3 CALM 0 0 1017.1 - 0.0 - - - - - - -
27/06:30pm 22.1 NNE 4 4 1016.8 - 0.0 - - - - - - -
27/06:00pm 23.6 NNE 4 4 1016.4 - 0.0 - - - - - - -
27/05:30pm 24.9 NNE 4 5 1016.1 - 0.0 - - - - - - -
27/05:00pm 26.4 NNE 6 7 1016.1 - 0.0 - - - - - - -
27/04:30pm 27.4 NNE 9 11 1015.7 - 0.0 - - - - - - -
27/04:00pm 28.6 NE 10 12 1015.6 - 0.0 - - - - - - -
27/03:30pm 29.7 NE 13 16 1015.6 - 0.0 - - - - - - -
27/03:00pm 29.9 NE 13 17 1015.6 - 0.0 - - - - - - -
27/02:30pm 29.9 ENE 14 18 1015.6 - 0.0 - - - - - - -
27/02:00pm 29.3 ENE 15 20 1015.8 - 0.0 - - - - - - -
27/01:30pm 29.3 ENE 15 21 1016.2 - 0.0 - - - - - - -
27/01:00pm 29.2 E 17 22 1016.6 - 0.0 - - - - - - -
27/12:30pm 28.4 E 18 23 1017.1 - 0.0 - - - - - - -
27/12:00pm 27.6 E 16 22 1017.7 - 0.0 - - - - - - -
27/11:30am 26.5 E 18 23 1018.1 - 0.0 - - - - - - -
27/11:00am 25.8 E 19 25 1018.7 - 0.0 - - - - - - -
27/10:30am 25.1 ESE 20 25 1019.2 - 0.0 - - - - - - -
27/10:00am 23.8 ESE 20 25 1019.6 - 0.0 - - - - - - -
27/09:30am 22.7 ESE 20 28 1019.8 - 0.0 - - - - - - -
27/09:00am 21.7 ESE 19 25 1019.9 - 0.0 - - - - - - -
27/08:30am 20.7 ESE 17 24 1019.8 - 0.0 - - - - - - -
27/08:00am 19.5 ESE 14 20 1019.7 - 0.0 - - - - - - -
27/07:30am 17.6 ESE 10 13 1019.0 - 0.0 - - - - - - -
27/07:00am 16.2 ESE 9 11 1018.5 - 0.0 - - - - - - -
27/06:30am 16.6 ESE 10 13 1018.4 - 0.0 - - - - - - -
27/06:00am 17.0 ESE 11 14 1018.3 - 0.0 - - - - - - -
27/05:30am 17.2 ESE 10 14 1018.1 - 0.0 - - - - - - -
27/05:00am 17.6 ESE 11 14 1017.8 - 0.0 - - - - - - -
27/04:30am 17.8 SE 11 14 1017.9 - 0.0 - - - - - - -
27/04:00am 17.6 ESE 10 12 1018.0 - 0.0 - - - - - - -
27/03:30am 18.1 ESE 12 15 1018.0 - 0.0 - - - - - - -
27/03:00am 18.7 ESE 14 18 1018.0 - 0.0 - - - - - - -
27/02:30am 18.5 ESE 13 16 1018.0 - 0.0 - - - - - - -
27/02:00am 18.7 ESE 13 18 1017.9 - 0.0 - - - - - - -
27/01:30am 19.0 ESE 13 15 1018.1 - 0.0 - - - - - - -
27/01:00am 19.6 ESE 13 18 1018.3 - 0.0 - - - - - - -
27/12:30am 19.9 ESE 13 16 1018.2 - 0.0 - - - - - - -
27/12:00am 20.3 SE 13 16 1018.5 - 0.0 - - - - - - -
 
Date/Time
WST
Temp
°C
Wind Pressure Rain since
9am
mm
Weather Cloud Vis
km
Sea
Height
m
Swell
Dir  Spd
kts
Gust
kts
hPa Trend Height
m
Period
s
Dir
26/11:30pm 20.5 ESE 12 16 1018.6 - 0.0 - - - - - - -
26/11:00pm 21.2 SE 13 17 1018.7 - 0.0 - - - - - - -
26/10:30pm 20.5 SE 10 12 1018.8 - 0.0 - - - - - - -
26/10:00pm 18.1 SSE 7 10 1018.8 - 0.0 - - - - - - -
26/09:30pm 20.0 SE 8 10 1019.1 - 0.0 - - - - - - -
26/09:00pm 21.3 SE 9 11 1019.1 - 0.0 - - - - - - -
26/08:30pm 21.0 ESE 10 12 1019.1 - 0.0 - - - - - - -
26/08:00pm 20.7 ESE 9 11 1018.6 - 0.0 - - - - - - -
26/07:30pm 21.5 ESE 9 11 1018.3 - 0.0 - - - - - - -
26/07:00pm 22.3 ESE 8 9 1017.7 - 0.0 - - - - - - -
26/06:30pm 24.0 ESE 8 9 1017.0 - 0.0 - - - - - - -
26/06:00pm 25.9 ESE 8 10 1016.6 - 0.0 - - - - - - -
26/05:30pm 27.1 ESE 10 13 1016.1 - 0.0 - - - - - - -
26/05:00pm 28.3 ESE 12 16 1015.8 - 0.0 - - - - - - -
26/04:30pm 28.6 SE 12 15 1015.7 - 0.0 - - - - - - -
26/04:00pm 28.9 ESE 12 19 1015.6 - 0.0 - - - - - - -
26/03:30pm 28.8 ESE 13 16 1015.5 - 0.0 - - - - - - -
26/03:00pm 28.9 ESE 12 17 1015.8 - 0.0 - - - - - - -
26/02:30pm 28.7 ESE 13 18 1016.2 - 0.0 - - - - - - -
26/02:00pm 28.2 ESE 13 17 1016.5 - 0.0 - - - - - - -
26/01:30pm 28.2 ESE 13 19 1016.8 - 0.0 - - - - - - -
26/01:00pm 27.6 ESE 13 19 1017.1 - 0.0 - - - - - - -
26/12:30pm 27.7 ESE 15 20 1017.7 - 0.0 - - - - - - -
26/12:00pm 27.3 ESE 16 21 1018.3 - 0.0 - - - - - - -
26/11:30am 26.5 ESE 17 24 1018.6 - 0.0 - - - - - - -
26/11:00am 25.8 ESE 17 22 1019.1 - 0.0 - - - - - - -
26/10:30am 25.7 ESE 18 23 1019.4 - 0.0 - - - - - - -
26/10:00am 25.1 ESE 19 26 1019.7 - 0.0 - - - - - - -
26/09:30am 24.4 ESE 19 25 1019.8 - 0.0 - - - - - - -
26/09:00am 23.4 ESE 19 26 1019.6 - 0.2 - - - - - - -
26/08:30am 22.5 ESE 17 25 1019.6 - 0.2 - - - - - - -
26/08:27am 22.4 SE 17 25 1019.6 - 0.2 - - - - - - -
26/08:00am 20.9 ESE 10 15 1019.3 - 0.2 - - - - - - -
26/07:30am 18.6 ESE 6 7 1019.0 - 0.2 - - - - - - -
26/07:00am 18.2 SE 7 9 1018.7 - 0.2 - - - - - - -
26/06:30am 18.9 SE 9 11 1018.4 - 0.2 - - - - - - -
26/06:00am 18.7 SE 9 10 1018.2 - 0.2 - - - - - - -
26/05:30am 17.2 SE 8 10 1017.6 - 0.2 - - - - - - -
26/05:00am 17.0 ESE 6 7 1017.2 - 0.2 - - - - - - -
26/04:30am 17.6 E 3 5 1017.1 - 0.2 - - - - - - -

Other Formats:

Comma delimited format used in spreadsheet applications
http://www.bom.gov.au/fwo/IDW60701/IDW60701.94308.axf

JavaScript Object Notation format (JSON) in row-major order
http://www.bom.gov.au/fwo/IDW60701/IDW60701.94308.json